AUA40Y LOWW-LEBL
Flight info
| Callsign | AUA40Y |
|---|---|
| Flight time | N/A |
| Altitude | 38000 |
| Route | OSPEN DCT ABRUK DCT SETAL DCT DETSA/N0442F370 DCT GEKBA DCT VAMTU DCT KOLON DCT GANGU DCT PADKO DCT DIVKO DCT NILDU N975 BISBA |
| Aircraft | A321/M-SDE3FGHIRWY/LB1 |
Departure
| Time | 2026-05-04 06:28 |
|---|---|
| Airport | Vienna International Airport (LOWW) |
Arrival
| Time | N/A |
|---|---|
| Airport | Josep Tarradellas Barcelona-El Prat Airport (LEBL) |
| Time | Latitude | Longitude | Altitude | Speed | Heading |
|---|---|---|---|---|---|
| 2026-05-04 05:51 | 48.11761 | 16.56625 | 623 ft | 0 kts | 26° |
| 2026-05-04 06:20 | 48.11739 | 16.56608 | 615 ft | 4 kts | 31° |
| 2026-05-04 06:21 | 48.11703 | 16.56536 | 625 ft | 0 kts | 116° |
| 2026-05-04 06:25 | 48.11627 | 16.57421 | 619 ft | 18 kts | 344° |
| 2026-05-04 06:25 | 48.11745 | 16.57371 | 620 ft | 17 kts | 344° |
| 2026-05-04 06:26 | 48.11853 | 16.57326 | 613 ft | 16 kts | 344° |
| 2026-05-04 06:26 | 48.11955 | 16.57291 | 622 ft | 15 kts | 3° |
| 2026-05-04 06:26 | 48.12008 | 16.57415 | 615 ft | 18 kts | 77° |
| 2026-05-04 06:26 | 48.11993 | 16.57601 | 610 ft | 18 kts | 104° |
| 2026-05-04 06:27 | 48.10907 | 16.58272 | 625 ft | 130 kts | 164° |
| 2026-05-04 06:28 | 48.09899 | 16.58692 | 748 ft | 161 kts | 165° |
| 2026-05-04 06:28 | 48.08830 | 16.59138 | 1475 ft | 160 kts | 166° |
| 2026-05-04 06:28 | 48.07740 | 16.59592 | 2036 ft | 170 kts | 167° |
| 2026-05-04 06:28 | 48.06523 | 16.60057 | 2353 ft | 190 kts | 173° |
| 2026-05-04 06:29 | 48.05188 | 16.59607 | 2638 ft | 215 kts | 212° |
| 2026-05-04 06:29 | 48.03998 | 16.58051 | 3106 ft | 239 kts | 224° |
| 2026-05-04 06:29 | 48.02882 | 16.56136 | 3851 ft | 249 kts | 230° |
| 2026-05-04 06:29 | 48.01803 | 16.54101 | 4742 ft | 255 kts | 232° |
| 2026-05-04 06:30 | 48.00703 | 16.51952 | 5635 ft | 261 kts | 232° |
| 2026-05-04 06:30 | 47.99608 | 16.49796 | 6533 ft | 266 kts | 233° |
| 2026-05-04 06:30 | 47.98478 | 16.47572 | 7360 ft | 271 kts | 233° |
| 2026-05-04 06:30 | 47.97311 | 16.45292 | 8251 ft | 274 kts | 232° |
| 2026-05-04 06:31 | 47.96155 | 16.43047 | 9128 ft | 277 kts | 232° |
| 2026-05-04 06:31 | 47.94953 | 16.40723 | 9971 ft | 281 kts | 231° |
| 2026-05-04 06:31 | 47.93725 | 16.38357 | 10439 ft | 299 kts | 232° |
| 2026-05-04 06:31 | 47.92406 | 16.35817 | 10688 ft | 321 kts | 231° |
| 2026-05-04 06:32 | 47.91032 | 16.33178 | 11230 ft | 330 kts | 231° |
| 2026-05-04 06:33 | 47.80832 | 16.13670 | 16252 ft | 352 kts | 231° |
| 2026-05-04 06:34 | 47.79319 | 16.10778 | 16915 ft | 355 kts | 231° |
| 2026-05-04 06:34 | 47.77791 | 16.07863 | 17561 ft | 359 kts | 231° |
| 2026-05-04 06:34 | 47.76247 | 16.04926 | 18218 ft | 362 kts | 231° |
| 2026-05-04 06:34 | 47.74686 | 16.01964 | 18807 ft | 366 kts | 231° |
| 2026-05-04 06:35 | 47.73110 | 15.98974 | 19336 ft | 369 kts | 231° |
| 2026-05-04 06:36 | 47.61650 | 15.77332 | 22849 ft | 392 kts | 232° |
| 2026-05-04 06:37 | 47.59961 | 15.74151 | 23303 ft | 395 kts | 232° |
| 2026-05-04 06:37 | 47.58252 | 15.70941 | 23732 ft | 399 kts | 232° |
| 2026-05-04 06:37 | 47.56526 | 15.67704 | 24127 ft | 401 kts | 232° |
| 2026-05-04 06:37 | 47.54787 | 15.64444 | 24548 ft | 404 kts | 232° |
| 2026-05-04 06:38 | 47.53043 | 15.61177 | 24960 ft | 406 kts | 232° |
| 2026-05-04 06:38 | 47.51286 | 15.57887 | 25362 ft | 409 kts | 232° |
| 2026-05-04 06:40 | 47.44150 | 15.30197 | 28170 ft | 424 kts | 254° |
| 2026-05-04 06:40 | 47.43323 | 15.25995 | 28561 ft | 426 kts | 254° |
| 2026-05-04 06:40 | 47.42489 | 15.21771 | 28956 ft | 429 kts | 254° |
| 2026-05-04 06:40 | 47.41652 | 15.17540 | 29338 ft | 431 kts | 254° |
| 2026-05-04 06:41 | 47.40810 | 15.13281 | 29718 ft | 433 kts | 254° |
| 2026-05-04 06:41 | 47.39962 | 15.09007 | 30084 ft | 435 kts | 254° |
| 2026-05-04 06:41 | 47.39108 | 15.04709 | 30394 ft | 437 kts | 254° |
| 2026-05-04 06:41 | 47.38253 | 15.00399 | 30706 ft | 439 kts | 254° |
| 2026-05-04 06:42 | 47.37396 | 14.96079 | 31019 ft | 440 kts | 254° |
| 2026-05-04 06:42 | 47.36533 | 14.91747 | 31321 ft | 441 kts | 254° |
| 2026-05-04 06:42 | 47.35666 | 14.87402 | 31690 ft | 440 kts | 254° |
| 2026-05-04 06:44 | 47.29673 | 14.57657 | 34483 ft | 428 kts | 254° |
| 2026-05-04 06:44 | 47.28818 | 14.53455 | 34811 ft | 427 kts | 254° |
| 2026-05-04 06:44 | 47.27964 | 14.49275 | 35133 ft | 426 kts | 254° |
| 2026-05-04 06:45 | 47.27112 | 14.45103 | 35436 ft | 426 kts | 254° |
| 2026-05-04 06:45 | 47.26259 | 14.40934 | 35758 ft | 425 kts | 254° |
| 2026-05-04 06:45 | 47.25406 | 14.36778 | 36077 ft | 423 kts | 254° |
| 2026-05-04 06:45 | 47.24553 | 14.32631 | 36386 ft | 422 kts | 254° |
| 2026-05-04 06:46 | 47.23699 | 14.28490 | 36706 ft | 422 kts | 254° |
| 2026-05-04 06:46 | 47.22846 | 14.24370 | 36984 ft | 421 kts | 254° |
| 2026-05-04 06:46 | 47.21991 | 14.20244 | 37103 ft | 420 kts | 253° |
| 2026-05-04 06:46 | 47.21142 | 14.16157 | 37102 ft | 418 kts | 253° |
| 2026-05-04 06:48 | 47.14343 | 13.83619 | 37112 ft | 416 kts | 253° |
| 2026-05-04 06:50 | 47.07435 | 13.51193 | 37112 ft | 416 kts | 253° |
| 2026-05-04 06:51 | 47.05705 | 13.43149 | 37115 ft | 416 kts | 253° |
| 2026-05-04 06:51 | 47.03966 | 13.35056 | 37114 ft | 416 kts | 253° |
| 2026-05-04 06:52 | 47.02219 | 13.26985 | 37110 ft | 415 kts | 252° |
| 2026-05-04 06:52 | 47.00461 | 13.18927 | 37109 ft | 416 kts | 252° |
| 2026-05-04 06:53 | 46.98704 | 13.10848 | 37105 ft | 416 kts | 252° |
| 2026-05-04 06:53 | 46.96945 | 13.02780 | 37108 ft | 416 kts | 252° |
| 2026-05-04 06:54 | 46.95169 | 12.94708 | 37117 ft | 416 kts | 252° |
| 2026-05-04 06:54 | 46.93389 | 12.86644 | 37118 ft | 416 kts | 252° |
| 2026-05-04 06:55 | 46.91603 | 12.78598 | 37121 ft | 416 kts | 252° |
| 2026-05-04 06:55 | 46.89807 | 12.70565 | 37127 ft | 416 kts | 252° |
| 2026-05-04 06:57 | 46.82904 | 12.39825 | 37203 ft | 416 kts | 252° |
| 2026-05-04 06:58 | 46.81090 | 12.31815 | 37223 ft | 415 kts | 250° |
| 2026-05-04 06:58 | 46.78345 | 12.24440 | 37228 ft | 415 kts | 233° |
| 2026-05-04 06:59 | 46.74832 | 12.17745 | 37224 ft | 415 kts | 233° |
| 2026-05-04 06:59 | 46.71325 | 12.10981 | 37215 ft | 416 kts | 234° |
| 2026-05-04 07:01 | 46.57302 | 11.84221 | 37147 ft | 416 kts | 233° |
| 2026-05-04 07:02 | 46.53784 | 11.77543 | 37135 ft | 416 kts | 234° |
| 2026-05-04 07:02 | 46.50268 | 11.70881 | 37141 ft | 416 kts | 233° |
| 2026-05-04 07:03 | 46.46742 | 11.64220 | 37138 ft | 416 kts | 233° |
| 2026-05-04 07:03 | 46.43211 | 11.57574 | 37143 ft | 416 kts | 233° |
| 2026-05-04 07:04 | 46.39693 | 11.50974 | 37145 ft | 416 kts | 233° |
| 2026-05-04 07:04 | 46.36155 | 11.44348 | 37143 ft | 416 kts | 233° |
| 2026-05-04 07:05 | 46.32617 | 11.37722 | 37148 ft | 416 kts | 233° |
| 2026-05-04 07:05 | 46.29073 | 11.31105 | 37217 ft | 416 kts | 233° |
| 2026-05-04 07:06 | 46.23749 | 11.21203 | 37228 ft | 416 kts | 233° |
| 2026-05-04 07:07 | 46.20197 | 11.14621 | 37223 ft | 415 kts | 233° |
| 2026-05-04 07:09 | 46.05952 | 10.88369 | 37190 ft | 415 kts | 233° |
| 2026-05-04 07:09 | 46.02382 | 10.81823 | 37175 ft | 415 kts | 232° |
| 2026-05-04 07:10 | 45.98812 | 10.75293 | 37170 ft | 415 kts | 232° |
| 2026-05-04 07:12 | 45.84512 | 10.49300 | 37139 ft | 414 kts | 232° |
| 2026-05-04 07:12 | 45.80949 | 10.42873 | 37136 ft | 414 kts | 232° |
| 2026-05-04 07:13 | 45.77362 | 10.36424 | 37123 ft | 414 kts | 232° |
| 2026-05-04 07:13 | 45.73775 | 10.29972 | 37113 ft | 414 kts | 232° |
| 2026-05-04 07:14 | 45.64809 | 10.13891 | 37106 ft | 413 kts | 232° |
| 2026-05-04 07:15 | 45.61212 | 10.07483 | 37105 ft | 413 kts | 232° |
| 2026-05-04 07:15 | 45.57619 | 10.01080 | 37103 ft | 413 kts | 232° |
| 2026-05-04 07:16 | 45.54021 | 9.94696 | 37103 ft | 413 kts | 232° |
| 2026-05-04 07:16 | 45.50422 | 9.88313 | 37101 ft | 413 kts | 232° |
| 2026-05-04 07:17 | 45.46818 | 9.81939 | 37098 ft | 413 kts | 232° |
| 2026-05-04 07:17 | 45.43201 | 9.75567 | 37164 ft | 414 kts | 232° |
| 2026-05-04 07:18 | 45.39581 | 9.69182 | 37164 ft | 414 kts | 232° |
| 2026-05-04 07:18 | 45.35963 | 9.62812 | 37163 ft | 414 kts | 232° |
| 2026-05-04 07:19 | 45.32331 | 9.56449 | 37159 ft | 415 kts | 231° |
| 2026-05-04 07:19 | 45.28684 | 9.50083 | 37111 ft | 415 kts | 231° |
| 2026-05-04 07:20 | 45.25044 | 9.43725 | 37116 ft | 415 kts | 231° |
| 2026-05-04 07:20 | 45.21417 | 9.37417 | 37118 ft | 415 kts | 231° |
| 2026-05-04 07:22 | 45.06782 | 9.12093 | 37129 ft | 415 kts | 231° |
| 2026-05-04 07:23 | 45.03114 | 9.05768 | 37128 ft | 416 kts | 231° |
| 2026-05-04 07:23 | 44.99437 | 8.99458 | 37128 ft | 415 kts | 231° |
| 2026-05-04 07:24 | 44.95754 | 8.93165 | 37130 ft | 415 kts | 231° |
| 2026-05-04 07:24 | 44.92076 | 8.86880 | 37133 ft | 415 kts | 231° |
| 2026-05-04 07:26 | 44.77372 | 8.61865 | 37136 ft | 413 kts | 231° |
| 2026-05-04 07:27 | 44.73698 | 8.55655 | 37135 ft | 413 kts | 231° |
| 2026-05-04 07:27 | 44.70044 | 8.49492 | 37139 ft | 413 kts | 231° |
| 2026-05-04 07:28 | 44.66359 | 8.43299 | 37138 ft | 412 kts | 231° |
| 2026-05-04 07:28 | 44.62687 | 8.37125 | 37137 ft | 412 kts | 231° |
| 2026-05-04 07:29 | 44.59014 | 8.30959 | 37131 ft | 411 kts | 231° |
| 2026-05-04 07:29 | 44.55343 | 8.24812 | 37134 ft | 411 kts | 231° |
| 2026-05-04 07:30 | 44.51659 | 8.18662 | 37131 ft | 411 kts | 231° |
| 2026-05-04 07:30 | 44.47979 | 8.12544 | 37129 ft | 411 kts | 231° |
| 2026-05-04 07:31 | 44.44296 | 8.06416 | 37130 ft | 411 kts | 231° |
| 2026-05-04 07:33 | 44.29547 | 7.82046 | 37129 ft | 410 kts | 230° |
| 2026-05-04 07:33 | 44.25676 | 7.76213 | 37132 ft | 411 kts | 223° |
| 2026-05-04 07:34 | 44.21384 | 7.70947 | 37128 ft | 411 kts | 223° |
| 2026-05-04 07:34 | 44.17099 | 7.65682 | 37125 ft | 410 kts | 223° |
| 2026-05-04 07:35 | 44.13043 | 7.60128 | 37122 ft | 409 kts | 230° |
| 2026-05-04 07:35 | 44.09324 | 7.54140 | 37117 ft | 408 kts | 230° |
| 2026-05-04 07:36 | 44.05591 | 7.48180 | 37121 ft | 408 kts | 230° |